Time;durP1;ratioP1;P1;durP2;ratioP2;P2;SDS_P1;SDS_P2;PMS_P1;PMS_P2;Temp;Humidity;BMP_temperature;BMP_pressure;BME280_temperature;BME280_humidity;BME280_pressure;Samples;Min_cycle;Max_cycle;Signal;HPM_P1;HPM_P2
2022/09/07 00:01:43;;;;;;;1999.90;999.90;;;15.40;99.90;;;;;;5208591;28;20033;-77
2022/09/07 00:04:14;;;;;;;1999.90;999.90;;;15.80;99.90;;;;;;5207259;28;20024;-78
2022/09/07 00:06:45;;;;;;;1999.90;999.90;;;15.90;99.90;;;;;;5208726;28;20029;-77
2022/09/07 00:09:15;;;;;;;1999.90;999.90;;;16.00;99.90;;;;;;5208401;28;20017;-76
2022/09/07 00:11:46;;;;;;;1999.90;999.90;;;15.90;99.90;;;;;;5208602;28;20452;-76
2022/09/07 00:14:17;;;;;;;1999.90;999.90;;;15.80;99.90;;;;;;5208367;28;20044;-77
2022/09/07 00:16:48;;;;;;;1999.90;999.90;;;15.90;99.90;;;;;;5208439;28;20100;-77
2022/09/07 00:19:18;;;;;;;1999.90;999.90;;;16.00;99.90;;;;;;5208313;28;20037;-77
2022/09/07 00:21:49;;;;;;;1999.90;999.90;;;16.00;99.90;;;;;;5208329;28;20028;-77
2022/09/07 00:24:20;;;;;;;1999.90;999.90;;;15.80;99.90;;;;;;5208139;28;20087;-77
2022/09/07 00:26:54;;;;;;;1999.90;999.90;;;16.00;99.90;;;;;;5208135;28;20071;-77
2022/09/07 00:29:24;;;;;;;1999.90;999.90;;;15.90;99.90;;;;;;5208164;28;20061;-77
2022/09/07 00:31:55;;;;;;;1999.90;999.90;;;15.70;99.90;;;;;;5206427;28;20562;-76
2022/09/07 00:34:26;;;;;;;1999.90;999.90;;;16.00;99.90;;;;;;5207740;28;20022;-76
2022/09/07 00:36:57;;;;;;;1999.90;999.90;;;15.80;99.90;;;;;;5207966;28;20041;-76
2022/09/07 00:39:28;;;;;;;1999.90;999.90;;;16.10;99.90;;;;;;5207697;28;20025;-75
2022/09/07 00:41:59;;;;;;;1999.90;999.90;;;16.10;99.90;;;;;;5207161;28;20424;-77
2022/09/07 00:44:42;;;;;;;1999.90;999.90;;;16.10;99.90;;;;;;5207878;28;20040;-75
2022/09/07 00:47:31;;;;;;;1999.90;999.90;;;16.20;99.90;;;;;;5207786;28;20521;-76
2022/09/07 00:50:25;;;;;;;1999.90;999.90;;;16.00;99.90;;;;;;5207596;28;20034;-75
2022/09/07 00:53:09;;;;;;;1999.90;999.90;;;16.20;99.90;;;;;;5206973;28;20319;-76
2022/09/07 00:55:43;;;;;;;1999.90;999.90;;;16.20;99.90;;;;;;5207516;28;20421;-76
2022/09/07 00:58:14;;;;;;;1999.90;999.90;;;16.20;99.90;;;;;;5207635;28;20151;-75
2022/09/07 01:00:47;;;;;;;1999.90;999.90;;;16.40;99.90;;;;;;5207497;28;20537;-77
2022/09/07 01:03:23;;;;;;;1999.90;999.90;;;16.50;99.90;;;;;;5207328;28;20098;-77
2022/09/07 01:06:18;;;;;;;1999.90;999.90;;;16.30;99.90;;;;;;5207419;28;20055;-78
2022/09/07 01:08:50;;;;;;;1999.90;999.90;;;16.50;99.90;;;;;;5207152;28;20022;-76
2022/09/07 01:11:22;;;;;;;1999.90;999.90;;;16.60;99.90;;;;;;5207091;28;20032;-77
2022/09/07 01:13:53;;;;;;;1999.90;999.90;;;16.50;99.90;;;;;;5207246;28;20071;-77
2022/09/07 01:16:49;;;;;;;1999.90;999.90;;;16.50;99.90;;;;;;5207098;28;20041;-75
2022/09/07 01:19:42;;;;;;;1999.90;999.90;;;16.70;99.90;;;;;;5207108;28;20029;-77
2022/09/07 01:22:46;;;;;;;1999.90;999.90;;;16.80;99.90;;;;;;5206949;28;20025;-77
2022/09/07 01:25:46;;;;;;;1999.90;999.90;;;16.80;99.90;;;;;;5206177;28;20409;-77
2022/09/07 01:28:20;;;;;;;1999.90;999.90;;;17.20;99.90;;;;;;5207175;28;20404;-76
2022/09/07 01:30:58;;;;;;;1999.90;999.90;;;17.10;99.90;;;;;;5205610;28;20394;-77
2022/09/07 01:33:50;;;;;;;1999.90;999.90;;;16.80;99.90;;;;;;5206949;28;20021;-76
2022/09/07 01:36:37;;;;;;;1999.90;999.90;;;16.80;99.90;;;;;;5206849;28;20030;-76
2022/09/07 01:39:08;;;;;;;1999.90;999.90;;;16.80;99.90;;;;;;5205441;28;20482;-76
2022/09/07 01:41:39;;;;;;;1999.90;999.90;;;17.10;99.90;;;;;;5206347;28;20072;-77
2022/09/07 01:44:51;;;;;;;1999.90;999.90;;;16.90;99.90;;;;;;5206691;28;20156;-76
2022/09/07 01:47:54;;;;;;;1999.90;999.90;;;17.30;99.90;;;;;;5195297;28;20052;-77
2022/09/07 01:50:53;;;;;;;1999.90;999.90;;;17.60;99.90;;;;;;5202513;28;20116;-77
2022/09/07 01:53:38;;;;;;;1999.90;999.90;;;17.90;99.90;;;;;;5206644;28;20029;-76
2022/09/07 01:56:16;;;;;;;1999.90;999.90;;;17.70;99.90;;;;;;5206595;28;20283;-76
2022/09/07 01:58:55;;;;;;;1999.90;999.90;;;17.90;99.90;;;;;;5205087;28;20040;-76
2022/09/07 02:02:12;;;;;;;1999.90;999.90;;;17.90;99.90;;;;;;5206463;28;20372;-77
2022/09/07 02:05:06;;;;;;;1999.90;999.90;;;18.00;99.90;;;;;;5186830;28;20042;-77
2022/09/07 02:07:52;;;;;;;1999.90;999.90;;;18.00;99.90;;;;;;5206304;28;20101;-76
2022/09/07 02:10:35;;;;;;;1999.90;999.90;;;17.80;99.90;;;;;;5205917;28;20026;-77
2022/09/07 02:13:19;;;;;;;1999.90;999.90;;;17.70;99.90;;;;;;5206151;28;20044;-77
2022/09/07 02:16:05;;;;;;;1999.90;999.90;;;17.70;99.90;;;;;;5206047;28;20144;-75
2022/09/07 02:18:49;;;;;;;1999.90;999.90;;;17.60;99.90;;;;;;5206048;28;20030;-77
2022/09/07 02:21:28;;;;;;;1999.90;999.90;;;17.60;99.90;;;;;;5206054;28;20031;-76
2022/09/07 02:24:09;;;;;;;1999.90;999.90;;;17.60;99.90;;;;;;5205684;28;20041;-77
2022/09/07 02:26:44;;;;;;;1999.90;999.90;;;17.80;99.90;;;;;;5205970;28;20025;-76
2022/09/07 02:29:15;;;;;;;1999.90;999.90;;;17.70;99.90;;;;;;5204594;28;20394;-76
2022/09/07 02:31:46;;;;;;;1999.90;999.90;;;17.80;99.90;;;;;;5205858;28;20033;-77
2022/09/07 02:34:17;;;;;;;1999.90;999.90;;;17.80;99.90;;;;;;5205811;28;20500;-75
2022/09/07 02:36:50;;;;;;;1999.90;999.90;;;17.70;99.90;;;;;;5204570;28;20053;-76
2022/09/07 02:39:20;;;;;;;1999.90;999.90;;;17.70;99.90;;;;;;5205915;28;20025;-76
2022/09/07 02:41:51;;;;;;;1999.90;999.90;;;17.80;99.90;;;;;;5205721;28;20156;-75
2022/09/07 02:44:33;;;;;;;1999.90;999.90;;;17.80;99.90;;;;;;5205955;28;20033;-75
2022/09/07 02:47:30;;;;;;;1999.90;999.90;;;17.70;99.90;;;;;;5204470;28;20409;-76
2022/09/07 02:50:09;;;;;;;1999.90;999.90;;;17.80;99.90;;;;;;5205690;28;20022;-77
2022/09/07 02:53:07;;;;;;;1999.90;999.90;;;17.70;99.90;;;;;;5205547;28;20064;-74
2022/09/07 02:55:44;;;;;;;1999.90;999.90;;;17.60;99.90;;;;;;5205460;28;20029;-76
2022/09/07 02:58:47;;;;;;;1999.90;999.90;;;17.80;99.90;;;;;;5206435;28;20025;-77
2022/09/07 03:01:55;;;;;;;1999.90;999.90;;;17.70;99.90;;;;;;5209836;28;20373;-77
2022/09/07 03:04:54;;;;;;;1999.90;999.90;;;17.80;99.90;;;;;;5209748;28;20091;-77
2022/09/07 03:07:39;;;;;;;1999.90;999.90;;;17.70;99.90;;;;;;5208459;28;20488;-77
2022/09/07 03:10:12;;;;;;;1999.90;999.90;;;17.70;99.90;;;;;;5208038;28;20029;-77
2022/09/07 03:12:48;;;;;;;1999.90;999.90;;;17.60;99.90;;;;;;5209452;28;20171;-76
2022/09/07 03:15:21;;;;;;;1999.90;999.90;;;17.60;99.90;;;;;;5209430;28;20026;-75
2022/09/07 03:17:52;;;;;;;1999.90;999.90;;;17.70;99.90;;;;;;5209404;28;20025;-77
2022/09/07 03:20:23;;;;;;;1999.90;999.90;;;17.70;99.90;;;;;;5209412;28;20029;-77
2022/09/07 03:22:54;;;;;;;1999.90;999.90;;;17.70;99.90;;;;;;5209336;28;20020;-77
2022/09/07 03:25:25;;;;;;;1999.90;999.90;;;17.60;99.90;;;;;;5209228;28;20033;-76
2022/09/07 03:27:56;;;;;;;1999.90;999.90;;;17.70;99.90;;;;;;5209282;28;20033;-77
2022/09/07 03:30:26;;;;;;;1999.90;999.90;;;17.90;99.90;;;;;;5208931;28;20036;-77
2022/09/07 03:32:57;;;;;;;1999.90;999.90;;;17.80;99.90;;;;;;5209176;28;20028;-77
2022/09/07 03:35:28;;;;;;;1999.90;999.90;;;17.80;99.90;;;;;;5209066;28;20052;-77
2022/09/07 03:37:59;;;;;;;1999.90;999.90;;;17.60;99.90;;;;;;5209079;28;20485;-77
2022/09/07 03:40:30;;;;;;;1999.90;999.90;;;17.60;99.90;;;;;;5208798;28;20469;-76
2022/09/07 03:43:00;;;;;;;1999.90;999.90;;;17.70;99.90;;;;;;5208850;28;20072;-77
2022/09/07 03:45:31;;;;;;;1999.90;999.90;;;17.50;99.90;;;;;;5209194;28;20112;-77
2022/09/07 03:48:02;;;;;;;1999.90;999.90;;;17.60;99.90;;;;;;5208926;28;20507;-76
2022/09/07 03:50:33;;;;;;;1999.90;999.90;;;17.60;99.90;;;;;;5207550;28;20120;-76
2022/09/07 03:53:04;;;;;;;1999.90;999.90;;;17.70;99.90;;;;;;5209308;28;20025;-77
2022/09/07 03:55:34;;;;;;;1999.90;999.90;;;17.70;99.90;;;;;;5209118;28;20021;-77
2022/09/07 03:58:05;;;;;;;1999.90;999.90;;;17.60;99.90;;;;;;5208772;28;20057;-77
2022/09/07 04:00:40;;;;;;;1999.90;999.90;;;17.60;99.90;;;;;;5208749;28;20481;-77
2022/09/07 04:03:11;;;;;;;1999.90;999.90;;;17.70;99.90;;;;;;5208704;28;20021;-77
2022/09/07 04:05:41;;;;;;;1999.90;999.90;;;17.50;99.90;;;;;;5207532;28;20613;-77
2022/09/07 04:08:12;;;;;;;1999.90;999.90;;;17.30;99.90;;;;;;5208473;28;20381;-76
2022/09/07 04:10:43;;;;;;;1999.90;999.90;;;17.70;99.90;;;;;;5206531;28;20476;-75
2022/09/07 04:13:14;;;;;;;1999.90;999.90;;;18.00;99.90;;;;;;5208457;28;20037;-75
2022/09/07 04:15:45;;;;;;;1999.90;999.90;;;17.70;99.90;;;;;;5208470;28;20028;-77
2022/09/07 04:18:16;;;;;;;1999.90;999.90;;;17.80;99.90;;;;;;5208269;28;20028;-76
2022/09/07 04:20:49;;;;;;;1999.90;999.90;;;18.00;99.90;;;;;;5207033;28;20033;-76
2022/09/07 04:23:20;;;;;;;1999.90;999.90;;;17.90;99.90;;;;;;5206949;28;20468;-76
2022/09/07 04:25:51;;;;;;;1999.90;999.90;;;17.90;99.90;;;;;;5208193;28;20056;-76
2022/09/07 04:28:22;;;;;;;1999.90;999.90;;;17.90;99.90;;;;;;5208034;28;20041;-76
2022/09/07 04:30:53;;;;;;;1999.90;999.90;;;18.00;99.90;;;;;;5207777;28;20037;-77
2022/09/07 04:33:24;;;;;;;1999.90;999.90;;;17.70;99.90;;;;;;5207881;28;20022;-76
2022/09/07 04:35:54;;;;;;;1999.90;999.90;;;17.60;99.90;;;;;;5207983;28;20022;-77
2022/09/07 04:38:26;;;;;;;1999.90;999.90;;;17.70;99.90;;;;;;5207707;28;20473;-76
2022/09/07 04:41:22;;;;;;;1999.90;999.90;;;17.70;99.90;;;;;;5207606;28;20044;-75
2022/09/07 04:43:56;;;;;;;1999.90;999.90;;;17.80;99.90;;;;;;5207706;28;20033;-76
2022/09/07 04:46:33;;;;;;;1999.90;999.90;;;17.90;99.90;;;;;;5206592;28;20547;-77
2022/09/07 04:49:07;;;;;;;1999.90;999.90;;;17.90;99.90;;;;;;5206469;28;20021;-76
2022/09/07 04:51:39;;;;;;;1999.90;999.90;;;17.80;99.90;;;;;;5207803;28;20359;-76
2022/09/07 04:54:10;;;;;;;1999.90;999.90;;;17.90;99.90;;;;;;5207637;28;20029;-77
2022/09/07 04:56:41;;;;;;;1999.90;999.90;;;18.00;99.90;;;;;;5207815;28;20500;-76
2022/09/07 04:59:11;;;;;;;1999.90;999.90;;;17.90;99.90;;;;;;5206210;28;20029;-76
2022/09/07 05:01:42;;;;;;;1999.90;999.90;;;18.10;99.90;;;;;;5207693;28;20079;-77
2022/09/07 05:04:13;;;;;;;1999.90;999.90;;;18.20;99.90;;;;;;5207795;28;20425;-76
2022/09/07 05:06:44;;;;;;;1999.90;999.90;;;18.30;99.90;;;;;;5207532;28;20022;-77
2022/09/07 05:09:14;;;;;;;1999.90;999.90;;;18.20;99.90;;;;;;5207114;28;20079;-76
2022/09/07 05:11:45;;;;;;;1999.90;999.90;;;18.40;99.90;;;;;;5207335;28;20430;-76
2022/09/07 05:14:16;;;;;;;1999.90;999.90;;;18.40;99.90;;;;;;5207009;28;20029;-77
2022/09/07 05:16:47;;;;;;;1999.90;999.90;;;18.70;99.90;;;;;;5207260;28;20384;-75
2022/09/07 05:19:18;;;;;;;1999.90;999.90;;;19.30;99.90;;;;;;5207086;28;20045;-76
2022/09/07 05:21:48;;;;;;;1999.90;999.90;;;20.10;99.90;;;;;;5206240;28;20112;-76
2022/09/07 05:24:19;;;;;;;1999.90;999.90;;;20.30;99.90;;;;;;5206910;28;20509;-76
2022/09/07 05:26:50;;;;;;;1999.90;999.90;;;20.40;99.90;;;;;;5206788;28;20120;-76
2022/09/07 05:29:21;;;;;;;1999.90;999.90;;;20.70;99.90;;;;;;5206637;28;20030;-76
2022/09/07 05:31:53;;;;;;;1999.90;999.90;;;21.00;99.90;;;;;;5206660;28;20076;-75
2022/09/07 05:34:24;;;;;;;1999.90;999.90;;;20.80;99.90;;;;;;5206680;28;20041;-71
2022/09/07 05:36:55;;;;;;;1999.90;999.90;;;20.70;99.90;;;;;;5206612;28;20465;-72
2022/09/07 05:39:26;;;;;;;1999.90;999.90;;;20.40;99.90;;;;;;5206578;28;20021;-72
2022/09/07 05:41:57;;;;;;;1999.90;999.90;;;20.30;99.90;;;;;;5205016;28;20413;-71
2022/09/07 05:44:30;;;;;;;1999.90;999.90;;;20.30;99.90;;;;;;5206420;28;20026;-71
2022/09/07 05:47:01;;;;;;;1999.90;999.90;;;20.30;99.90;;;;;;5206492;28;20041;-73
2022/09/07 05:49:32;;;;;;;1999.90;999.90;;;20.80;99.90;;;;;;5206278;28;20064;-72
2022/09/07 05:52:03;;;;;;;1999.90;999.90;;;21.00;99.90;;;;;;5206283;28;20029;-72
2022/09/07 05:54:33;;;;;;;1999.90;999.90;;;21.30;99.90;;;;;;5204978;28;20025;-71
2022/09/07 05:57:06;;;;;;;1999.90;999.90;;;21.60;99.90;;;;;;5206271;28;20075;-69
2022/09/07 05:59:36;;;;;;;1999.90;999.90;;;21.40;99.90;;;;;;5206255;28;20516;-74
2022/09/07 06:02:11;;;;;;;1999.90;999.90;;;21.40;99.90;;;;;;5206244;28;20029;-72
2022/09/07 06:04:42;;;;;;;1999.90;999.90;;;21.30;99.90;;;;;;5206349;28;20095;-72
2022/09/07 06:07:13;;;;;;;1999.90;999.90;;;21.40;99.90;;;;;;5206346;28;20029;-71
2022/09/07 06:09:44;;;;;;;1999.90;999.90;;;21.60;99.90;;;;;;5206311;28;20030;-73
2022/09/07 06:12:15;;;;;;;1999.90;999.90;;;21.40;99.90;;;;;;5205908;28;20041;-71
2022/09/07 06:14:45;;;;;;;1999.90;999.90;;;21.10;99.90;;;;;;5206010;28;20029;-74
2022/09/07 06:17:16;;;;;;;1999.90;999.90;;;21.30;99.90;;;;;;5206294;28;20399;-70
2022/09/07 06:19:47;;;;;;;1999.90;999.90;;;21.70;99.90;;;;;;5206049;28;20485;-71
2022/09/07 06:22:18;;;;;;;1999.90;999.90;;;21.80;99.90;;;;;;5205767;28;20385;-71
2022/09/07 06:24:48;;;;;;;1999.90;999.90;;;22.20;99.90;;;;;;5205748;28;20036;-71
2022/09/07 06:27:19;;;;;;;1999.90;999.90;;;22.10;99.90;;;;;;5205960;28;20022;-70
2022/09/07 06:29:50;;;;;;;1999.90;999.90;;;22.10;99.90;;;;;;5203946;28;20021;-70
2022/09/07 06:32:21;;;;;;;1999.90;999.90;;;22.40;99.90;;;;;;5205418;28;20064;-78
2022/09/07 06:34:52;;;;;;;1999.90;999.90;;;22.80;99.90;;;;;;5206662;28;20022;-78
2022/09/07 06:37:23;;;;;;;1999.90;999.90;;;22.70;99.90;;;;;;5205937;28;20416;-71
2022/09/07 06:39:54;;;;;;;1999.90;999.90;;;22.40;99.90;;;;;;5205764;28;20025;-70
2022/09/07 06:42:25;;;;;;;1999.90;999.90;;;22.60;99.90;;;;;;5205575;28;20497;-71
2022/09/07 06:44:56;;;;;;;1999.90;999.90;;;22.80;99.90;;;;;;5205888;28;20033;-70
2022/09/07 06:47:27;;;;;;;1999.90;999.90;;;23.00;99.90;;;;;;5205662;28;20025;-69
2022/09/07 06:49:57;;;;;;;1999.90;999.90;;;23.10;99.90;;;;;;5205617;28;20021;-70
2022/09/07 06:52:28;;;;;;;1999.90;999.90;;;23.20;99.90;;;;;;5205697;28;20045;-71
2022/09/07 06:54:59;;;;;;;1999.90;999.90;;;23.30;99.90;;;;;;5204176;28;20021;-70
2022/09/07 06:57:30;;;;;;;1999.90;999.90;;;23.30;99.90;;;;;;5205518;28;20029;-70
2022/09/07 07:00:01;;;;;;;1999.90;999.90;;;23.30;99.90;;;;;;5204172;28;20029;-69
2022/09/07 07:02:32;;;;;;;1999.90;999.90;;;23.50;99.90;;;;;;5205673;28;20041;-69
2022/09/07 07:05:04;;;;;;;1999.90;999.90;;;23.20;99.90;;;;;;5205517;28;20033;-70
2022/09/07 07:07:34;;;;;;;1999.90;999.90;;;23.50;99.90;;;;;;5205509;28;20104;-69
2022/09/07 07:10:05;;;;;;;1999.90;999.90;;;23.40;99.90;;;;;;5205196;28;21076;-70
2022/09/07 07:12:36;;;;;;;1999.90;999.90;;;23.40;99.90;;;;;;5203962;28;20095;-69
2022/09/07 07:15:08;;;;;;;1999.90;999.90;;;23.50;99.90;;;;;;5205326;28;20033;-69
2022/09/07 07:17:39;;;;;;;1999.90;999.90;;;23.50;99.90;;;;;;5204068;28;20026;-69
2022/09/07 07:20:10;;;;;;;1999.90;999.90;;;23.70;99.90;;;;;;5205435;28;20083;-70
2022/09/07 07:22:40;;;;;;;1999.90;999.90;;;23.70;99.90;;;;;;5205372;28;20025;-71
2022/09/07 07:25:11;;;;;;;1999.90;999.90;;;23.70;99.90;;;;;;5205483;28;20434;-73
2022/09/07 07:27:44;;;;;;;1999.90;999.90;;;24.00;99.90;;;;;;5205403;28;20033;-70
2022/09/07 07:30:17;;;;;;;1999.90;999.90;;;23.80;99.90;;;;;;5205273;28;20024;-69
2022/09/07 07:32:48;;;;;;;1999.90;999.90;;;23.50;99.90;;;;;;5205522;28;20116;-69
2022/09/07 07:35:18;;;;;;;1999.90;999.90;;;23.10;99.90;;;;;;5205504;28;20104;-69
2022/09/07 07:37:53;;;;;;;1999.90;999.90;;;23.20;99.90;;;;;;5205258;28;20101;-69
2022/09/07 07:40:24;;;;;;;1999.90;999.90;;;23.20;99.90;;;;;;5205083;28;20026;-69
2022/09/07 07:42:55;;;;;;;1999.90;999.90;;;23.10;99.90;;;;;;5203236;28;20057;-68
2022/09/07 07:45:25;;;;;;;1999.90;999.90;;;23.00;99.90;;;;;;5207933;28;20024;-69
2022/09/07 07:47:56;;;;;;;1999.90;999.90;;;23.10;99.90;;;;;;5208934;28;20030;-69
2022/09/07 07:50:27;;;;;;;1999.90;999.90;;;23.10;99.90;;;;;;5208902;28;20028;-69
2022/09/07 07:52:58;;;;;;;1999.90;999.90;;;23.70;99.90;;;;;;5207423;28;20107;-70
2022/09/07 07:55:29;;;;;;;1999.90;999.90;;;23.70;99.90;;;;;;5208680;28;20100;-68
2022/09/07 07:58:00;;;;;;;1999.90;999.90;;;24.00;99.90;;;;;;5208744;28;20029;-68
2022/09/07 08:00:31;;;;;;;1999.90;999.90;;;24.30;99.90;;;;;;5207400;28;20027;-69
2022/09/07 08:03:02;;;;;;;1999.90;999.90;;;24.60;99.90;;;;;;5208651;28;20107;-69
2022/09/07 08:05:36;;;;;;;1999.90;999.90;;;24.30;99.90;;;;;;5207343;28;20401;-69
2022/09/07 08:08:07;;;;;;;1999.90;999.90;;;24.50;99.90;;;;;;5208463;28;20485;-68
2022/09/07 08:10:38;;;;;;;1999.90;999.90;;;24.40;99.90;;;;;;5208277;28;20041;-70
2022/09/07 08:13:09;;;;;;;1999.90;999.90;;;24.50;99.90;;;;;;5208247;28;20071;-74
2022/09/07 08:15:43;;;;;;;1999.90;999.90;;;24.50;99.90;;;;;;5208174;28;20025;-72
2022/09/07 08:18:15;;;;;;;1999.90;999.90;;;24.20;99.90;;;;;;5207053;28;20038;-69
2022/09/07 08:20:46;;;;;;;1999.90;999.90;;;24.50;99.90;;;;;;5206777;28;20026;-74
2022/09/07 08:23:19;;;;;;;1999.90;999.90;;;24.60;99.90;;;;;;5207956;28;20538;-72
2022/09/07 08:25:53;;;;;;;1999.90;999.90;;;24.70;99.90;;;;;;5206967;28;20041;-70
2022/09/07 08:28:26;;;;;;;1999.90;999.90;;;24.10;99.90;;;;;;5208105;28;20029;-70
2022/09/07 08:30:57;;;;;;;1999.90;999.90;;;24.00;99.90;;;;;;5207959;28;20116;-70
2022/09/07 08:33:28;;;;;;;1999.90;999.90;;;24.40;99.90;;;;;;5208088;28;20072;-70
2022/09/07 08:36:02;;;;;;;1999.90;999.90;;;24.40;99.90;;;;;;5208171;28;20100;-69
2022/09/07 08:38:36;;;;;;;1999.90;999.90;;;24.70;99.90;;;;;;5207940;28;20438;-76
2022/09/07 08:41:50;;;;;;;1999.90;999.90;;;24.10;99.90;;;;;;5207662;28;20045;-70
2022/09/07 08:44:44;;;;;;;1999.90;999.90;;;24.30;99.90;;;;;;5170269;28;20429;-70
2022/09/07 08:47:22;;;;;;;1999.90;999.90;;;24.30;99.90;;;;;;5208009;28;20061;-70
2022/09/07 08:50:28;;;;;;;1999.90;999.90;;;24.80;99.90;;;;;;5206637;28;20032;-70
2022/09/07 08:53:06;;;;;;;1999.90;999.90;;;25.00;99.90;;;;;;5165320;28;20049;-70
2022/09/07 08:55:39;;;;;;;1999.90;999.90;;;24.90;99.90;;;;;;5207671;28;20060;-69
2022/09/07 08:58:36;;;;;;;1999.90;999.90;;;24.20;99.90;;;;;;5207733;28;20458;-70
2022/09/07 09:01:36;;;;;;;1999.90;999.90;;;24.70;99.90;;;;;;5207006;28;20045;-70
2022/09/07 09:04:17;;;;;;;1999.90;999.90;;;25.00;99.90;;;;;;5197540;28;20699;-72
2022/09/07 09:07:09;;;;;;;1999.90;999.90;;;25.00;99.90;;;;;;5206207;28;20034;-70
2022/09/07 09:10:01;;;;;;;1999.90;999.90;;;25.20;99.90;;;;;;5207088;28;20033;-69
2022/09/07 09:12:54;;;;;;;1999.90;999.90;;;25.50;99.90;;;;;;5207436;28;20093;-71
2022/09/07 09:15:51;;;;;;;1999.90;999.90;;;25.30;99.90;;;;;;5207339;28;20026;-69
2022/09/07 09:18:39;;;;;;;1999.90;999.90;;;25.60;99.90;;;;;;5196804;28;20037;-70
2022/09/07 09:21:18;;;;;;;1999.90;999.90;;;25.20;99.90;;;;;;5207149;28;20022;-69
2022/09/07 09:23:52;;;;;;;1999.90;999.90;;;25.20;99.90;;;;;;5207206;28;20029;-74
2022/09/07 09:26:29;;;;;;;1999.90;999.90;;;25.10;99.90;;;;;;5206998;28;20017;-70
2022/09/07 09:29:12;;;;;;;1999.90;999.90;;;25.30;99.90;;;;;;5207081;28;20025;-70
2022/09/07 09:31:43;;;;;;;1999.90;999.90;;;25.40;99.90;;;;;;5206716;28;20040;-73
2022/09/07 09:34:17;;;;;;;1999.90;999.90;;;25.40;99.90;;;;;;5206695;28;20029;-78
2022/09/07 09:36:53;;;;;;;1999.90;999.90;;;25.50;99.90;;;;;;5206681;28;20021;-77
2022/09/07 09:39:28;;;;;;;1999.90;999.90;;;24.70;99.90;;;;;;5205129;28;20029;-73
2022/09/07 09:42:22;;;;;;;1999.90;999.90;;;25.50;99.90;;;;;;5204821;28;20045;-71
2022/09/07 09:44:53;;;;;;;1999.90;999.90;;;25.80;99.90;;;;;;5206534;28;20029;-69
2022/09/07 09:47:32;;;;;;;1999.90;999.90;;;25.50;99.90;;;;;;5205787;28;20032;-70
2022/09/07 09:50:35;;;;;;;1999.90;999.90;;;25.60;99.90;;;;;;5205130;28;20473;-71
2022/09/07 09:53:28;;;;;;;1999.90;999.90;;;25.90;99.90;;;;;;5206284;28;20057;-70
2022/09/07 09:56:06;;;;;;;1999.90;999.90;;;26.20;99.90;;;;;;5206136;28;20497;-69
2022/09/07 09:58:44;;;;;;;1999.90;999.90;;;26.10;99.90;;;;;;5206607;28;20489;-71
2022/09/07 10:01:32;;;;;;;1999.90;999.90;;;26.10;99.90;;;;;;5206532;28;20417;-78
2022/09/07 10:04:31;;;;;;;1999.90;999.90;;;26.10;99.90;;;;;;5204928;28;20026;-74
2022/09/07 10:07:19;;;;;;;1999.90;999.90;;;26.20;99.90;;;;;;5198862;28;20103;-70
2022/09/07 10:09:52;;;;;;;1999.90;999.90;;;25.60;99.90;;;;;;5206060;28;20036;-69
2022/09/07 10:12:33;;;;;;;1999.90;999.90;;;25.50;99.90;;;;;;5206251;28;20045;-78
2022/09/07 10:15:05;;;;;;;1999.90;999.90;;;26.00;99.90;;;;;;5206386;28;20029;-74
2022/09/07 10:17:40;;;;;;;1999.90;999.90;;;26.20;99.90;;;;;;5206143;28;20373;-73
2022/09/07 10:20:35;;;;;;;1999.90;999.90;;;25.60;99.90;;;;;;5204790;28;20030;-70
2022/09/07 10:23:26;;;;;;;1999.90;999.90;;;26.20;99.90;;;;;;5123171;29;20662;-69
2022/09/07 10:25:57;;;;;;;1999.90;999.90;;;26.70;99.90;;;;;;5123148;29;20031;-71
2022/09/07 10:28:27;;;;;;;1999.90;999.90;;;26.50;99.90;;;;;;5106824;29;20039;-70
2022/09/07 10:31:30;;;;;;;1999.90;999.90;;;25.90;99.90;;;;;;5122883;29;20031;-71
2022/09/07 10:34:30;;;;;;;1999.90;999.90;;;26.00;99.90;;;;;;5110981;29;20039;-68
2022/09/07 10:37:07;;;;;;;1999.90;999.90;;;26.20;99.90;;;;;;5122208;29;20568;-71
2022/09/07 10:39:58;;;;;;;1999.90;999.90;;;26.20;99.90;;;;;;5105568;29;20108;-71
2022/09/07 10:42:32;;;;;;;1999.90;999.90;;;26.20;99.90;;;;;;5122463;28;20062;-72
2022/09/07 10:45:37;;;;;;;1999.90;999.90;;;26.10;99.90;;;;;;5106235;29;20063;-72
2022/09/07 10:48:33;;;;;;;1999.90;999.90;;;25.80;99.90;;;;;;5122464;29;20050;-71
2022/09/07 10:51:14;;;;;;;1999.90;999.90;;;25.70;99.90;;;;;;5115771;29;20047;-72
2022/09/07 10:54:18;;;;;;;1999.90;999.90;;;25.70;99.90;;;;;;5122505;29;20097;-80
2022/09/07 10:57:27;;;;;;;1999.90;999.90;;;25.80;99.90;;;;;;5110094;29;20031;-72
2022/09/07 11:00:10;;;;;;;1999.90;999.90;;;25.80;99.90;;;;;;5160717;28;20044;-72
2022/09/07 11:02:41;;;;;;;1999.90;999.90;;;25.30;99.90;;;;;;5205541;28;20493;-72
2022/09/07 11:05:39;;;;;;;1999.90;999.90;;;25.80;99.90;;;;;;5205357;28;20035;-76
2022/09/07 11:08:32;;;;;;;1999.90;999.90;;;26.20;99.90;;;;;;5205450;28;20025;-74
2022/09/07 11:11:18;;;;;;;1999.90;999.90;;;26.20;99.90;;;;;;5205082;28;20043;-74
2022/09/07 11:13:52;;;;;;;1999.90;999.90;;;26.40;99.90;;;;;;5205362;28;20485;-81
2022/09/07 11:16:29;;;;;;;1999.90;999.90;;;26.10;99.90;;;;;;5204385;28;20053;-71
2022/09/07 11:19:10;;;;;;;1999.90;999.90;;;25.40;99.90;;;;;;5206053;28;20017;-71
2022/09/07 11:21:49;;;;;;;1999.90;999.90;;;25.80;99.90;;;;;;5209779;28;20022;-71
2022/09/07 11:24:40;;;;;;;1999.90;999.90;;;26.40;99.90;;;;;;5209556;28;20389;-72
2022/09/07 11:27:36;;;;;;;1999.90;999.90;;;25.90;99.90;;;;;;5209448;28;20473;-72
2022/09/07 11:30:33;;;;;;;1999.90;999.90;;;26.20;99.90;;;;;;5209231;28;20095;-72
2022/09/07 11:33:17;;;;;;;1999.90;999.90;;;26.40;99.90;;;;;;5197303;28;20049;-73
2022/09/07 11:36:30;;;;;;;1999.90;999.90;;;26.00;99.90;;;;;;5208030;28;20026;-71
2022/09/07 11:39:11;;;;;;;1999.90;999.90;;;26.30;99.90;;;;;;5153996;28;20572;-72
2022/09/07 11:41:52;;;;;;;1999.90;999.90;;;26.30;99.90;;;;;;5208931;28;20111;-71
2022/09/07 11:44:40;;;;;;;1999.90;999.90;;;26.50;99.90;;;;;;5209116;28;20033;-72
2022/09/07 11:47:43;;;;;;;1999.90;999.90;;;26.50;99.90;;;;;;5209072;28;20105;-71
2022/09/07 11:50:22;;;;;;;1999.90;999.90;;;26.60;99.90;;;;;;5208808;28;20063;-73
2022/09/07 11:53:20;;;;;;;1999.90;999.90;;;26.10;99.90;;;;;;5208732;28;20076;-71
2022/09/07 11:55:59;;;;;;;1999.90;999.90;;;25.90;99.90;;;;;;5208914;28;20072;-71
2022/09/07 11:58:43;;;;;;;1999.90;999.90;;;25.90;99.90;;;;;;5208849;28;20025;-71
2022/09/07 12:01:21;;;;;;;1999.90;999.90;;;26.20;99.90;;;;;;5208677;28;20077;-71
2022/09/07 12:04:01;;;;;;;1999.90;999.90;;;26.30;99.90;;;;;;5207352;28;20034;-71
2022/09/07 12:06:35;;;;;;;1999.90;999.90;;;26.40;99.90;;;;;;5207329;28;20397;-71
2022/09/07 12:09:24;;;;;;;1999.90;999.90;;;26.50;99.90;;;;;;5208367;28;20103;-71
2022/09/07 12:12:10;;;;;;;1999.90;999.90;;;26.50;99.90;;;;;;5208415;28;20045;-71
2022/09/07 12:15:00;;;;;;;1999.90;999.90;;;25.90;99.90;;;;;;5207264;28;20450;-71
2022/09/07 12:18:04;;;;;;;1999.90;999.90;;;26.30;99.90;;;;;;5207233;28;20108;-71
2022/09/07 12:20:46;;;;;;;1999.90;999.90;;;26.30;99.90;;;;;;5207271;28;20536;-71
2022/09/07 12:23:25;;;;;;;1999.90;999.90;;;26.30;99.90;;;;;;5208291;28;20496;-71
2022/09/07 12:26:33;;;;;;;1999.90;999.90;;;25.90;99.90;;;;;;5208430;28;20034;-71
2022/09/07 12:29:18;;;;;;;1999.90;999.90;;;26.10;99.90;;;;;;5208449;28;20025;-71
2022/09/07 12:31:54;;;;;;;1999.90;999.90;;;25.90;99.90;;;;;;5207821;28;20069;-71
2022/09/07 12:34:30;;;;;;;1999.90;999.90;;;26.30;99.90;;;;;;5208186;28;20029;-71
2022/09/07 12:37:35;;;;;;;1999.90;999.90;;;25.90;99.90;;;;;;5208093;28;20484;-73
2022/09/07 12:40:28;;;;;;;1999.90;999.90;;;25.70;99.90;;;;;;5206692;28;20029;-72
2022/09/07 12:43:14;;;;;;;1999.90;999.90;;;26.30;99.90;;;;;;5206652;28;20061;-71
2022/09/07 12:45:48;;;;;;;1999.90;999.90;;;25.90;99.90;;;;;;5207993;28;20044;-71
2022/09/07 12:48:25;;;;;;;1999.90;999.90;;;25.80;99.90;;;;;;5207955;28;20037;-71
2022/09/07 12:51:15;;;;;;;1999.90;999.90;;;26.60;99.90;;;;;;5207752;28;20029;-72
2022/09/07 12:54:12;;;;;;;1999.90;999.90;;;25.90;99.90;;;;;;5207784;28;20030;-72